createdAt,value
2023-03-27T04:07:21.833Z,87.90
2023-03-27T04:07:54.590Z,88.10
2023-03-27T04:09:41.406Z,88.50
2023-03-27T04:10:18.635Z,90.70
2023-03-27T04:10:50.562Z,89.60
2023-03-27T04:11:40.200Z,90.60
2023-03-27T04:12:32.534Z,89.90
2023-03-27T04:13:06.501Z,89.50
2023-03-27T04:13:42.441Z,89.20
2023-03-27T04:14:32.429Z,90.60
2023-03-27T04:15:07.237Z,89.60
2023-03-27T04:16:01.797Z,90.00
2023-03-27T04:16:39.885Z,90.90
2023-03-27T04:17:26.173Z,90.10
2023-03-27T04:17:58.811Z,91.20
2023-03-27T04:18:32.906Z,89.80
2023-03-27T04:19:07.463Z,90.50
2023-03-27T04:19:46.078Z,89.80
2023-03-27T04:20:18.039Z,90.10
2023-03-27T04:20:49.970Z,89.80
2023-03-27T04:21:26.619Z,90.20
2023-03-27T04:22:02.260Z,91.20
2023-03-27T04:22:38.153Z,90.70
2023-03-27T04:23:13.805Z,90.30
2023-03-27T04:23:48.272Z,90.10
2023-03-27T04:24:26.242Z,91.40
2023-03-27T04:24:58.089Z,90.30
2023-03-27T04:25:30.668Z,90.10
2023-03-27T04:26:03.985Z,90.70
2023-03-27T04:27:05.575Z,90.10
2023-03-27T04:27:52.313Z,90.10
2023-03-27T04:28:34.088Z,90.10
2023-03-27T04:29:22.254Z,90.10
2023-03-27T04:30:03.230Z,90.10
2023-03-27T04:30:53.698Z,90.10
2023-03-27T04:31:46.358Z,90.00
2023-03-27T04:32:38.408Z,90.00
2023-03-27T04:33:30.589Z,90.00
2023-03-27T04:34:15.132Z,90.00
2023-03-27T04:35:17.254Z,90.00
2023-03-27T04:36:05.341Z,90.10
2023-03-27T04:36:47.325Z,90.00
2023-03-27T04:37:26.261Z,90.00
2023-03-27T04:38:08.780Z,89.90
2023-03-27T04:38:49.521Z,90.50
2023-03-27T04:39:22.378Z,89.80
2023-03-27T04:39:54.432Z,89.70
2023-03-27T04:40:26.195Z,89.70
2023-03-27T04:40:58.487Z,89.70
2023-03-27T04:41:30.409Z,89.90
2023-03-27T04:42:02.928Z,89.60
2023-03-27T04:42:42.521Z,89.60
2023-03-27T04:43:17.270Z,89.60
2023-03-27T04:43:49.035Z,89.70
2023-03-27T04:44:21.327Z,89.70
2023-03-27T04:47:10.428Z,89.00
2023-03-27T04:47:44.748Z,89.20
2023-03-27T04:50:25.642Z,89.40
2023-03-27T04:51:38.488Z,89.30
2023-03-27T04:53:56.428Z,89.10
2023-03-27T04:54:31.608Z,89.30
2023-03-27T04:55:05.049Z,89.50
2023-03-27T04:56:14.704Z,89.30
2023-03-27T04:56:47.093Z,89.60
2023-03-27T04:57:56.553Z,89.50
2023-03-27T04:59:39.806Z,89.60
2023-03-27T05:00:34.732Z,89.60
2023-03-27T05:01:29.975Z,90.00
2023-03-27T05:02:16.946Z,89.80
2023-03-27T05:04:12.525Z,89.50
2023-03-27T05:05:10.133Z,89.70
2023-03-27T05:05:42.223Z,89.90
2023-03-27T05:07:21.374Z,89.50
2023-03-27T05:08:28.478Z,89.50
2023-03-27T05:09:00.913Z,89.60
2023-03-27T05:10:42.154Z,89.30
2023-03-27T05:11:14.105Z,89.40
2023-03-27T05:11:52.078Z,89.40
2023-03-27T05:12:24.133Z,89.50
2023-03-27T05:12:59.755Z,89.60
2023-03-27T05:14:03.782Z,88.00
2023-03-27T05:14:37.079Z,89.50
2023-03-27T05:15:17.454Z,89.60
2023-03-27T05:15:51.395Z,89.80
2023-03-27T05:16:26.620Z,91.10
2023-03-27T05:18:45.866Z,89.90
2023-03-27T05:19:19.327Z,91.10
2023-03-27T05:19:56.772Z,90.00
2023-03-27T05:21:00.776Z,89.70
2023-03-27T05:21:32.556Z,89.90
2023-03-27T05:22:04.483Z,89.80
2023-03-27T05:22:36.261Z,89.80
2023-03-27T05:23:53.272Z,90.00
2023-03-27T05:24:28.642Z,89.90
2023-03-27T05:25:01.488Z,90.00
2023-03-27T05:25:33.591Z,89.90
2023-03-27T05:26:08.351Z,90.00
2023-03-27T05:27:00.386Z,90.00
2023-03-27T05:27:32.643Z,90.00
2023-03-27T05:28:04.496Z,90.00
2023-03-27T05:28:39.926Z,90.10
2023-03-27T05:29:11.744Z,90.00
2023-03-27T05:29:49.066Z,90.10
2023-03-27T05:30:23.864Z,90.20
2023-03-27T05:31:04.109Z,90.70
2023-03-27T05:31:43.412Z,90.20
2023-03-27T05:32:49.035Z,90.20
2023-03-27T05:34:01.227Z,90.30
2023-03-27T05:34:38.442Z,91.60
2023-03-27T05:35:11.833Z,90.30
2023-03-27T05:35:49.948Z,91.00
2023-03-27T05:36:22.284Z,90.80
2023-03-27T05:36:54.920Z,91.40
2023-03-27T05:37:27.542Z,91.40
2023-03-27T05:38:22.527Z,91.70
2023-03-27T05:39:13.728Z,91.40
2023-03-27T05:39:47.509Z,91.80
2023-03-27T05:40:22.378Z,90.60
2023-03-27T05:40:54.398Z,90.70
2023-03-27T05:41:27.131Z,90.60
2023-03-27T05:41:58.887Z,91.70
2023-03-27T05:42:30.807Z,90.30
2023-03-27T05:43:03.177Z,90.50
2023-03-27T05:44:09.220Z,90.30
2023-03-27T05:44:44.690Z,91.50
2023-03-27T05:45:17.071Z,91.50
2023-03-27T05:45:49.398Z,90.30
2023-03-27T05:46:21.918Z,90.30
2023-03-27T05:47:14.466Z,90.60
2023-03-27T05:47:57.757Z,91.40
2023-03-27T05:48:30.838Z,91.40
2023-03-27T05:49:05.666Z,91.00
2023-03-27T05:49:38.149Z,90.60
2023-03-27T05:50:18.161Z,90.60
2023-03-27T05:50:50.217Z,90.60
2023-03-27T05:51:29.263Z,90.90
2023-03-27T05:52:01.808Z,91.80
2023-03-27T05:52:34.747Z,91.40
2023-03-27T05:53:10.985Z,91.30
2023-03-27T05:53:47.794Z,90.70
2023-03-27T05:54:29.300Z,91.20
2023-03-27T05:55:08.060Z,90.60
2023-03-27T05:55:44.794Z,90.60
2023-03-27T05:56:16.600Z,91.60
2023-03-27T05:57:08.603Z,90.60
2023-03-27T05:57:42.510Z,91.80
2023-03-27T05:58:14.525Z,90.70
2023-03-27T05:58:46.865Z,91.80
2023-03-27T05:59:20.060Z,91.00
2023-03-27T05:59:53.921Z,90.40
2023-03-27T06:00:31.827Z,90.40
2023-03-27T06:01:04.322Z,90.70
2023-03-27T06:01:36.512Z,90.70
2023-03-27T06:02:10.936Z,91.40
2023-03-27T06:02:54.293Z,90.60
2023-03-27T06:03:30.069Z,91.50
2023-03-27T06:04:05.443Z,91.70
2023-03-27T06:04:55.033Z,90.70
2023-03-27T06:05:33.882Z,90.70
2023-03-27T06:06:10.735Z,90.70
2023-03-27T06:06:42.954Z,90.70
2023-03-27T06:07:15.185Z,90.60
2023-03-27T06:07:48.193Z,90.50
2023-03-27T06:08:20.684Z,90.50
2023-03-27T06:08:53.300Z,91.60
2023-03-27T06:09:25.568Z,91.70
2023-03-27T06:10:20.149Z,91.70
2023-03-27T06:11:18.020Z,90.90
2023-03-27T06:11:50.872Z,91.70
2023-03-27T06:12:24.786Z,92.00
2023-03-27T06:13:06.424Z,90.70
2023-03-27T06:13:44.657Z,91.70
2023-03-27T06:14:20.063Z,90.70
2023-03-27T06:16:06.608Z,90.70
2023-03-27T06:16:41.286Z,90.90
2023-03-27T06:17:41.045Z,90.90
2023-03-27T06:18:13.192Z,91.70
2023-03-27T06:18:44.955Z,92.10
2023-03-27T06:19:19.178Z,91.90
2023-03-27T06:19:57.096Z,91.40
2023-03-27T06:20:29.080Z,91.00
2023-03-27T06:21:01.274Z,91.40
2023-03-27T06:21:33.180Z,90.70
2023-03-27T06:22:07.302Z,91.80
2023-03-27T06:22:44.778Z,91.60
2023-03-27T06:23:17.315Z,91.60
2023-03-27T06:23:49.137Z,89.90
2023-03-27T06:24:22.375Z,90.90
2023-03-27T06:24:54.503Z,91.60
2023-03-27T06:25:28.242Z,90.90
2023-03-27T06:26:00.439Z,90.90
2023-03-27T06:26:33.973Z,91.80
2023-03-27T06:27:10.421Z,90.60
2023-03-27T06:27:44.172Z,90.90
2023-03-27T06:28:15.923Z,92.10
2023-03-27T06:28:52.513Z,91.30
2023-03-27T06:29:29.022Z,91.00
2023-03-27T06:30:00.853Z,90.80
2023-03-27T06:30:32.918Z,91.60
2023-03-27T06:31:23.326Z,91.00
2023-03-27T06:32:16.948Z,90.70
2023-03-27T06:32:59.280Z,91.00
2023-03-27T06:33:31.715Z,90.70
2023-03-27T06:34:06.524Z,91.00
2023-03-27T06:35:08.158Z,91.00
2023-03-27T06:36:01.279Z,91.00
2023-03-27T06:36:35.167Z,90.80
2023-03-27T06:37:06.972Z,90.80
2023-03-27T06:37:50.636Z,91.00
2023-03-27T06:38:23.595Z,91.60
2023-03-27T06:38:56.310Z,90.80
2023-03-27T06:39:28.142Z,90.80
2023-03-27T06:40:00.402Z,91.10
2023-03-27T06:40:35.173Z,91.00
2023-03-27T06:41:07.068Z,91.70
2023-03-27T06:41:57.607Z,92.00
2023-03-27T06:42:29.430Z,91.90
2023-03-27T06:43:10.997Z,91.00
2023-03-27T06:43:52.728Z,92.00
2023-03-27T06:44:35.525Z,91.50
2023-03-27T06:45:17.257Z,91.00
2023-03-27T06:46:18.343Z,91.10
2023-03-27T06:47:08.609Z,91.70
2023-03-27T06:48:03.206Z,91.20
2023-03-27T06:48:50.957Z,91.90
2023-03-27T06:49:23.829Z,92.10
2023-03-27T06:49:56.192Z,90.90
2023-03-27T06:50:30.345Z,90.90
2023-03-27T06:51:03.829Z,91.90
2023-03-27T06:51:36.057Z,91.20
2023-03-27T06:52:40.478Z,90.90
2023-03-27T06:53:27.875Z,92.20
2023-03-27T06:54:00.102Z,92.00
2023-03-27T06:54:32.420Z,90.90
2023-03-27T06:55:04.510Z,90.90
2023-03-27T06:55:37.199Z,91.20
2023-03-27T06:56:09.204Z,92.00
2023-03-27T06:57:01.496Z,91.40
2023-03-27T06:57:47.222Z,91.10
2023-03-27T06:58:23.669Z,91.60
2023-03-27T06:58:55.629Z,91.10
2023-03-27T06:59:31.775Z,91.20
2023-03-27T07:00:19.832Z,91.10
2023-03-27T07:01:10.045Z,91.20
2023-03-27T07:02:01.236Z,91.20
2023-03-27T07:03:04.789Z,91.50
2023-03-27T07:03:53.859Z,91.10
2023-03-27T07:05:05.520Z,92.20
2023-03-27T07:05:45.583Z,91.20
2023-03-27T07:06:56.968Z,90.90
2023-03-27T07:07:30.280Z,91.80
2023-03-27T07:08:11.410Z,90.80
2023-03-27T07:08:53.456Z,91.50
2023-03-27T07:09:25.173Z,92.00
2023-03-27T07:10:05.630Z,92.30
2023-03-27T07:10:38.280Z,91.10
2023-03-27T07:11:12.670Z,92.00
2023-03-27T07:11:54.508Z,91.50
2023-03-27T07:12:26.804Z,92.10
2023-03-27T07:12:58.775Z,90.90
2023-03-27T07:13:30.489Z,92.20
2023-03-27T07:14:05.085Z,92.30
2023-03-27T07:14:36.926Z,92.00
2023-03-27T07:15:10.298Z,92.30
2023-03-27T07:15:42.058Z,91.20
2023-03-27T07:16:14.095Z,92.00
2023-03-27T07:16:46.082Z,92.40
2023-03-27T07:17:18.765Z,91.40
2023-03-27T07:18:04.289Z,92.40
2023-03-27T07:18:36.628Z,92.30
2023-03-27T07:19:08.773Z,91.80
2023-03-27T07:19:44.410Z,90.80
2023-03-27T07:20:17.729Z,92.00
2023-03-27T07:20:50.386Z,91.20
2023-03-27T07:21:27.232Z,92.10
2023-03-27T07:22:02.199Z,92.30
2023-03-27T07:22:37.301Z,91.30
2023-03-27T07:23:13.459Z,91.20
2023-03-27T07:23:56.381Z,91.10
2023-03-27T07:24:36.026Z,91.10
2023-03-27T07:25:09.093Z,91.30
2023-03-27T07:25:45.842Z,91.30
2023-03-27T07:26:26.945Z,92.40
2023-03-27T07:27:05.632Z,91.70
2023-03-27T07:27:39.215Z,91.60
2023-03-27T07:28:16.527Z,91.60
2023-03-27T07:28:50.338Z,91.60
2023-03-27T07:30:01.143Z,91.10
2023-03-27T07:30:33.956Z,92.40
2023-03-27T07:31:25.957Z,91.10
2023-03-27T07:32:07.131Z,91.40
2023-03-27T07:32:47.476Z,92.30
2023-03-27T07:33:19.982Z,92.30
2023-03-27T07:33:52.064Z,91.20
2023-03-27T07:34:33.877Z,92.20
2023-03-27T07:35:25.230Z,91.50
2023-03-27T07:36:23.111Z,91.40
2023-03-27T07:37:02.366Z,90.50
2023-03-27T07:37:38.248Z,92.30
2023-03-27T07:38:29.150Z,91.40
2023-03-27T07:39:13.048Z,92.30
2023-03-27T07:39:45.123Z,92.60
2023-03-27T07:40:29.317Z,91.50
2023-03-27T07:41:25.404Z,91.60
2023-03-27T07:42:03.099Z,91.90
2023-03-27T07:42:51.296Z,92.30
2023-03-27T07:43:24.387Z,91.60
2023-03-27T07:44:29.124Z,91.20
2023-03-27T07:45:06.263Z,92.50
2023-03-27T07:45:38.373Z,91.60
2023-03-27T07:46:10.649Z,91.60
2023-03-27T07:46:42.473Z,91.40
2023-03-27T07:47:14.664Z,91.60
2023-03-27T07:47:47.442Z,92.30
2023-03-27T07:48:19.525Z,91.40
2023-03-27T07:48:52.366Z,92.50
2023-03-27T07:49:40.015Z,91.60
2023-03-27T07:50:20.187Z,91.60
2023-03-27T07:50:56.111Z,92.50
2023-03-27T07:51:33.028Z,92.70
2023-03-27T07:52:06.526Z,92.70
2023-03-27T07:52:44.668Z,91.70
2023-03-27T07:53:33.828Z,91.50
2023-03-27T07:54:15.407Z,92.90
2023-03-27T07:54:52.132Z,92.90
2023-03-27T07:55:29.535Z,91.70
2023-03-27T07:56:08.671Z,92.70
2023-03-27T07:56:41.001Z,91.70
2023-03-27T07:57:33.066Z,91.50
2023-03-27T07:58:11.641Z,91.50
2023-03-27T07:58:45.020Z,92.70
2023-03-27T07:59:22.190Z,91.70
2023-03-27T07:59:57.363Z,92.60
2023-03-27T08:00:36.062Z,91.90
2023-03-27T08:01:17.893Z,92.70
2023-03-27T08:01:50.766Z,92.70
2023-03-27T08:02:25.062Z,91.80
2023-03-27T08:03:08.626Z,91.80
2023-03-27T08:03:42.043Z,91.70
2023-03-27T08:04:15.374Z,91.50
2023-03-27T08:04:52.613Z,91.70
2023-03-27T08:05:25.105Z,92.10
2023-03-27T08:06:09.876Z,91.50
2023-03-27T08:06:42.543Z,91.80
2023-03-27T08:07:21.482Z,91.70
2023-03-27T08:07:53.415Z,92.70
2023-03-27T08:08:43.692Z,90.50
2023-03-27T08:09:15.581Z,91.70
2023-03-27T08:09:48.374Z,91.80
2023-03-27T08:10:20.866Z,91.50
2023-03-27T08:11:08.215Z,93.00
2023-03-27T08:11:45.442Z,91.80
2023-03-27T08:12:17.520Z,92.40
2023-03-27T08:13:00.813Z,92.70
2023-03-27T08:13:33.083Z,92.70
2023-03-27T08:14:09.168Z,92.20
2023-03-27T08:14:46.985Z,92.80
2023-03-27T08:15:25.558Z,93.00
2023-03-27T08:16:15.049Z,92.00
2023-03-27T08:16:47.283Z,91.70
2023-03-27T08:17:21.456Z,92.50
2023-03-27T08:17:56.412Z,91.80
2023-03-27T08:18:34.068Z,91.80
2023-03-27T08:19:06.637Z,92.70
2023-03-27T08:19:45.417Z,91.70
2023-03-27T08:20:18.750Z,90.90
2023-03-27T08:20:57.345Z,91.70
2023-03-27T08:21:31.993Z,92.60
2023-03-27T08:22:04.054Z,92.30
2023-03-27T08:22:48.572Z,92.70
2023-03-27T08:23:37.520Z,91.70
2023-03-27T08:24:27.440Z,91.60
2023-03-27T08:25:13.462Z,91.70
2023-03-27T08:25:50.428Z,91.50
2023-03-27T08:26:26.533Z,91.70
2023-03-27T08:27:03.492Z,91.70
2023-03-27T08:27:36.639Z,92.40
2023-03-27T08:28:08.446Z,91.80
2023-03-27T08:28:40.907Z,91.60
2023-03-27T08:29:12.749Z,91.50
2023-03-27T08:29:45.589Z,91.70
2023-03-27T08:30:18.971Z,92.60
2023-03-27T08:30:50.982Z,92.10
2023-03-27T08:31:24.071Z,91.60
2023-03-27T08:31:58.061Z,92.40
2023-03-27T08:32:29.917Z,91.60
2023-03-27T08:33:02.257Z,91.80
2023-03-27T08:33:34.599Z,91.80
2023-03-27T08:34:06.661Z,91.80
2023-03-27T08:34:49.657Z,91.90
2023-03-27T08:35:26.111Z,91.50
2023-03-27T08:35:58.286Z,91.90
2023-03-27T08:36:31.955Z,92.80
2023-03-27T08:37:04.353Z,92.50
2023-03-27T08:37:44.540Z,92.40
2023-03-27T08:38:49.408Z,91.60
2023-03-27T08:39:30.593Z,91.80
2023-03-27T08:40:13.741Z,91.60
2023-03-27T08:40:49.054Z,91.60
2023-03-27T08:41:38.653Z,92.60
2023-03-27T08:42:41.530Z,92.40
2023-03-27T08:43:27.240Z,92.00
2023-03-27T08:44:03.306Z,91.80
2023-03-27T08:44:37.323Z,91.60
2023-03-27T08:45:23.943Z,92.40
2023-03-27T08:46:05.116Z,91.60
2023-03-27T08:46:44.681Z,91.70
2023-03-27T08:47:35.577Z,92.60
2023-03-27T08:48:50.660Z,91.80
2023-03-27T08:49:28.142Z,92.00
2023-03-27T08:50:38.444Z,92.90
2023-03-27T08:51:39.943Z,92.40
2023-03-27T08:52:32.886Z,92.60
2023-03-27T08:53:20.849Z,93.40
2023-03-27T08:53:57.762Z,92.30
2023-03-27T08:54:36.297Z,92.40
2023-03-27T08:55:18.700Z,93.40
2023-03-27T08:56:27.108Z,92.80
2023-03-27T08:57:01.045Z,92.60
2023-03-27T08:57:34.434Z,92.50
2023-03-27T08:58:21.549Z,92.60
2023-03-27T08:58:58.611Z,92.40
2023-03-27T08:59:32.161Z,93.50
2023-03-27T09:00:09.882Z,92.40
2023-03-27T09:00:51.363Z,92.60
2023-03-27T09:01:45.543Z,93.20
2023-03-27T09:02:33.260Z,92.60
2023-03-27T09:03:15.602Z,92.60
2023-03-27T09:03:59.851Z,93.30
2023-03-27T09:05:07.175Z,91.70
2023-03-27T09:05:52.196Z,92.60
2023-03-27T09:06:30.105Z,92.70
2023-03-27T09:07:21.078Z,93.20
2023-03-27T09:08:46.236Z,92.70
2023-03-27T09:09:48.724Z,92.80
2023-03-27T09:10:51.669Z,92.60
2023-03-27T09:11:48.102Z,92.80
2023-03-27T09:12:40.813Z,93.90
2023-03-27T09:13:16.329Z,93.10
2023-03-27T09:13:51.153Z,92.80
2023-03-27T09:14:38.846Z,93.50
2023-03-27T09:15:15.842Z,93.60
2023-03-27T09:16:19.567Z,93.10
2023-03-27T09:16:54.925Z,92.90
2023-03-27T09:17:48.748Z,93.80
2023-03-27T09:18:31.013Z,93.60
2023-03-27T09:19:15.973Z,92.90
2023-03-27T09:19:56.002Z,92.90
2023-03-27T09:20:40.804Z,93.50
2023-03-27T09:21:27.821Z,93.70
2023-03-27T09:22:13.608Z,93.40
2023-03-27T09:23:21.781Z,92.80
2023-03-27T09:24:31.724Z,93.50
2023-03-27T09:25:34.531Z,92.90
2023-03-27T09:26:32.084Z,92.90
2023-03-27T09:27:36.296Z,93.30
2023-03-27T09:28:46.036Z,93.00
2023-03-27T09:29:29.879Z,93.00
2023-03-27T09:30:11.400Z,93.10
2023-03-27T09:30:49.774Z,94.30
2023-03-27T09:31:34.955Z,92.90
2023-03-27T09:32:16.152Z,93.40
2023-03-27T09:32:53.961Z,93.20
2023-03-27T09:33:26.974Z,93.60
2023-03-27T09:34:06.841Z,93.90
2023-03-27T09:34:39.126Z,93.30
2023-03-27T09:35:20.239Z,94.10
2023-03-27T09:35:59.000Z,93.00
2023-03-27T09:36:31.615Z,93.00
2023-03-27T09:37:14.355Z,92.70
2023-03-27T09:37:56.632Z,92.90
2023-03-27T09:38:38.038Z,94.00
2023-03-27T09:39:22.457Z,93.10
2023-03-27T09:40:01.323Z,94.10
2023-03-27T09:40:44.673Z,93.70
2023-03-27T09:41:31.530Z,93.60
2023-03-27T09:42:17.016Z,93.10
2023-03-27T09:42:56.308Z,93.80
2023-03-27T09:43:55.552Z,93.50
2023-03-27T09:44:37.711Z,93.40
2023-03-27T09:45:13.100Z,94.10
2023-03-27T09:46:02.102Z,93.20
2023-03-27T09:46:40.100Z,94.20
2023-03-27T09:47:21.260Z,93.00
2023-03-27T09:48:02.335Z,93.10
2023-03-27T09:48:50.424Z,93.10
2023-03-27T09:49:26.849Z,94.10
2023-03-27T09:50:21.928Z,93.90
2023-03-27T09:51:05.131Z,91.90
2023-03-27T09:51:47.550Z,93.10
2023-03-27T09:52:45.562Z,93.10
2023-03-27T09:53:27.892Z,94.30
2023-03-27T09:54:28.958Z,93.60
2023-03-27T09:55:30.049Z,94.40
2023-03-27T09:56:14.358Z,93.10
2023-03-27T09:56:55.045Z,94.10
2023-03-27T09:57:34.520Z,93.30
2023-03-27T09:58:15.626Z,94.60
2023-03-27T09:58:49.208Z,93.60
2023-03-27T09:59:26.685Z,94.70
2023-03-27T10:00:45.226Z,94.70
2023-03-27T10:01:28.948Z,93.60
2023-03-27T10:02:23.763Z,94.10
2023-03-27T10:03:01.905Z,93.50
2023-03-27T10:03:40.772Z,94.60
2023-03-27T10:04:21.915Z,94.60
2023-03-27T10:05:02.997Z,93.90
2023-03-27T10:05:41.669Z,93.90
2023-03-27T10:06:23.465Z,94.10
2023-03-27T10:07:10.104Z,93.80
2023-03-27T10:08:02.060Z,95.20
2023-03-27T10:08:50.346Z,94.80
2023-03-27T10:09:32.138Z,94.60
2023-03-27T10:10:13.827Z,95.00
2023-03-27T10:11:07.916Z,94.20
2023-03-27T10:11:51.317Z,94.20
2023-03-27T10:12:29.819Z,94.80
2023-03-27T10:13:03.386Z,94.10
2023-03-27T10:13:48.949Z,94.50
2023-03-27T10:14:26.185Z,94.30
2023-03-27T10:14:58.902Z,95.10
2023-03-27T10:15:36.328Z,94.60
2023-03-27T10:16:08.914Z,95.10
2023-03-27T10:16:54.582Z,94.40
2023-03-27T10:17:37.569Z,94.80
2023-03-27T10:18:27.954Z,94.80
2023-03-27T10:19:41.964Z,95.50
2023-03-27T10:20:20.271Z,94.70
2023-03-27T10:20:59.680Z,94.30
2023-03-27T10:21:38.961Z,94.30
2023-03-27T10:22:23.795Z,94.30
2023-03-27T10:23:03.264Z,94.20
2023-03-27T10:23:49.353Z,93.90
2023-03-27T10:24:46.167Z,93.40
2023-03-27T10:25:32.308Z,94.10
2023-03-27T10:26:21.029Z,93.40
2023-03-27T10:26:54.417Z,94.40
2023-03-27T10:27:33.954Z,94.80
2023-03-27T10:28:29.119Z,94.20
2023-03-27T10:29:30.307Z,93.20
2023-03-27T10:30:02.980Z,92.80
2023-03-27T10:30:38.000Z,93.30
2023-03-27T10:31:37.864Z,93.30
2023-03-27T10:32:15.333Z,92.80
2023-03-27T10:33:04.302Z,93.20
2023-03-27T10:33:48.506Z,93.60
2023-03-27T10:34:39.877Z,94.60
2023-03-27T10:35:28.146Z,94.10
2023-03-27T10:36:34.784Z,94.10
2023-03-27T10:37:22.921Z,93.10
2023-03-27T10:38:01.228Z,92.50
2023-03-27T10:39:12.802Z,92.90
2023-03-27T10:39:53.145Z,93.00
2023-03-27T10:40:39.455Z,91.80
2023-03-27T10:41:28.714Z,93.30
2023-03-27T10:42:08.009Z,94.20
2023-03-27T10:42:41.310Z,92.70
2023-03-27T10:43:33.502Z,92.70
2023-03-27T10:44:28.409Z,92.20
2023-03-27T10:45:03.447Z,93.30
2023-03-27T10:45:51.851Z,92.20
2023-03-27T10:46:27.804Z,92.30
2023-03-27T10:47:02.289Z,92.30
2023-03-27T10:47:35.281Z,92.90
2023-03-27T10:48:07.804Z,92.20
2023-03-27T10:49:17.402Z,92.40
2023-03-27T10:50:20.128Z,92.10
2023-03-27T10:50:57.919Z,92.10
2023-03-27T10:52:06.189Z,92.80
2023-03-27T10:53:08.875Z,92.80
2023-03-27T10:53:53.297Z,91.90
2023-03-27T10:54:37.013Z,93.30
2023-03-27T10:55:44.851Z,92.60
2023-03-27T10:56:43.714Z,92.80
2023-03-27T10:57:31.203Z,91.90
2023-03-27T10:58:16.425Z,91.70
2023-03-27T10:58:55.306Z,92.10
2023-03-27T10:59:44.284Z,91.90
2023-03-27T11:00:40.894Z,92.30
2023-03-27T11:01:28.485Z,92.90
2023-03-27T11:02:13.158Z,91.90
2023-03-27T11:02:52.833Z,92.30
2023-03-27T11:03:51.067Z,91.80
2023-03-27T11:04:37.211Z,91.90
2023-03-27T11:05:18.933Z,91.70
2023-03-27T11:05:53.739Z,92.80
2023-03-27T11:06:44.109Z,92.50
2023-03-27T11:07:37.717Z,92.00
2023-03-27T11:08:32.441Z,91.90
2023-03-27T11:09:20.279Z,92.10
2023-03-27T11:10:24.626Z,91.70
2023-03-27T11:11:01.159Z,90.70
2023-03-27T11:11:47.297Z,92.00
2023-03-27T11:12:22.394Z,91.80
2023-03-27T11:13:23.542Z,92.00
2023-03-27T11:14:02.466Z,91.60
2023-03-27T11:14:46.917Z,91.60
2023-03-27T11:15:29.328Z,91.50
2023-03-27T11:16:25.958Z,92.20
2023-03-27T11:17:28.941Z,91.30
2023-03-27T11:18:32.127Z,92.30
2023-03-27T11:19:22.473Z,91.60
2023-03-27T11:20:25.730Z,92.00
2023-03-27T11:21:36.927Z,91.90
2023-03-27T11:22:35.157Z,91.40
2023-03-27T11:23:19.812Z,92.30
2023-03-27T11:24:41.038Z,91.30
2023-03-27T11:25:53.794Z,91.60
2023-03-27T11:26:36.577Z,91.50
2023-03-27T11:27:20.872Z,91.50
2023-03-27T11:28:03.503Z,91.10
2023-03-27T11:28:46.393Z,92.30
2023-03-27T11:29:28.272Z,91.90
2023-03-27T11:30:08.480Z,91.80
2023-03-27T11:31:15.275Z,91.60
2023-03-27T11:31:55.719Z,91.70
2023-03-27T11:33:11.624Z,91.70
2023-03-27T11:33:54.395Z,91.70
2023-03-27T11:34:35.037Z,92.30
2023-03-27T11:35:33.814Z,91.40
2023-03-27T11:36:51.251Z,92.40
2023-03-27T11:37:43.010Z,91.30
2023-03-27T11:38:25.837Z,91.30
2023-03-27T11:39:18.697Z,91.20
2023-03-27T11:40:26.949Z,91.20
2023-03-27T11:41:06.046Z,91.10
2023-03-27T11:41:37.849Z,91.10
2023-03-27T11:42:27.494Z,91.40
2023-03-27T11:43:00.109Z,90.90
2023-03-27T11:43:32.890Z,91.20
2023-03-27T11:44:05.153Z,90.60
2023-03-27T11:44:56.124Z,91.00
2023-03-27T11:45:59.938Z,91.10
2023-03-27T11:47:13.330Z,91.40
2023-03-27T11:47:47.706Z,90.70
2023-03-27T11:48:57.899Z,91.00
2023-03-27T11:49:39.027Z,90.80
2023-03-27T11:50:43.617Z,90.50
2023-03-27T11:51:36.897Z,90.70
2023-03-27T11:52:36.845Z,90.80
2023-03-27T11:53:48.098Z,91.20
2023-03-27T11:54:43.510Z,90.70
2023-03-27T11:55:46.262Z,90.70
2023-03-27T11:56:54.811Z,90.80
2023-03-27T11:58:04.350Z,90.80
2023-03-27T11:59:15.266Z,90.70
2023-03-27T12:00:27.162Z,90.60
2023-03-27T12:01:26.970Z,90.40
2023-03-27T12:02:46.388Z,90.20
2023-03-27T12:03:22.901Z,90.10
2023-03-27T12:03:54.785Z,90.10
2023-03-27T12:04:41.380Z,90.30
2023-03-27T12:05:59.316Z,91.00
2023-03-27T12:06:51.015Z,90.10
2023-03-27T12:07:35.420Z,90.10
2023-03-27T12:08:33.497Z,90.10
2023-03-27T12:09:11.065Z,90.20
2023-03-27T12:10:28.527Z,90.20
2023-03-27T12:11:12.229Z,90.20
2023-03-27T12:12:13.103Z,90.20
2023-03-27T12:12:55.206Z,90.20
2023-03-27T12:13:47.740Z,90.70
2023-03-27T12:15:12.740Z,90.30
2023-03-27T12:15:57.170Z,90.30
2023-03-27T12:16:50.586Z,91.20
2023-03-27T12:17:49.135Z,90.40
2023-03-27T12:18:35.800Z,90.30
2023-03-27T12:19:31.046Z,90.70
2023-03-27T12:21:01.140Z,90.20
2023-03-27T12:22:09.328Z,90.30
2023-03-27T12:23:08.010Z,90.40
2023-03-27T12:24:26.487Z,90.40
2023-03-27T12:25:26.176Z,90.40
2023-03-27T12:26:13.244Z,90.30
2023-03-27T12:27:11.977Z,90.30
2023-03-27T12:28:22.768Z,90.50
2023-03-27T12:29:34.439Z,90.30
2023-03-27T12:30:24.703Z,90.20
2023-03-27T12:31:13.401Z,90.20
2023-03-27T12:32:06.002Z,88.30
2023-03-27T12:32:37.959Z,89.60
2023-03-27T12:33:33.336Z,90.00
2023-03-27T12:34:26.284Z,89.80
2023-03-27T12:35:03.627Z,89.60
2023-03-27T12:35:52.169Z,90.40
2023-03-27T12:36:30.912Z,90.30
2023-03-27T12:37:05.776Z,90.70
2023-03-27T12:37:53.492Z,90.00
2023-03-27T12:38:32.176Z,89.80
2023-03-27T12:39:25.946Z,90.00
2023-03-27T12:40:01.188Z,90.10
2023-03-27T12:40:39.757Z,90.20
2023-03-27T12:41:24.910Z,90.30
2023-03-27T12:42:54.438Z,90.70
2023-03-27T12:43:31.600Z,90.20
2023-03-27T12:44:30.496Z,90.10
2023-03-27T12:45:26.772Z,90.30
2023-03-27T12:46:06.668Z,90.80
2023-03-27T12:46:41.815Z,90.30
2023-03-27T12:47:25.259Z,90.20
2023-03-27T12:48:09.853Z,90.70
2023-03-27T12:49:02.084Z,90.30
2023-03-27T12:49:48.045Z,90.10
2023-03-27T12:50:34.959Z,90.50
2023-03-27T12:51:14.234Z,90.00
2023-03-27T12:52:06.769Z,90.70
2023-03-27T12:53:18.658Z,90.10
2023-03-27T12:53:55.826Z,90.70
2023-03-27T12:54:31.095Z,90.60
2023-03-27T12:55:14.379Z,91.00
2023-03-27T12:56:10.291Z,90.30
2023-03-27T12:56:42.730Z,90.30
2023-03-27T12:57:20.559Z,90.60
2023-03-27T12:57:54.519Z,90.70
2023-03-27T12:58:49.272Z,90.60
2023-03-27T12:59:28.788Z,90.40
2023-03-27T13:00:10.255Z,90.60
2023-03-27T13:00:53.735Z,90.20
2023-03-27T13:01:51.557Z,90.50
2023-03-27T13:02:40.992Z,90.50
2023-03-27T13:03:15.790Z,90.00
2023-03-27T13:03:47.773Z,90.30
2023-03-27T13:04:47.730Z,90.30
2023-03-27T13:05:49.882Z,90.10
2023-03-27T13:07:00.603Z,90.30
2023-03-27T13:08:16.077Z,90.20
2023-03-27T13:09:28.264Z,90.30
2023-03-27T13:10:23.839Z,90.30
2023-03-27T13:11:19.007Z,90.20
2023-03-27T13:12:10.329Z,90.30
2023-03-27T13:13:06.427Z,90.10
2023-03-27T13:14:10.728Z,90.10
2023-03-27T13:15:16.369Z,90.20
2023-03-27T13:16:05.822Z,90.20
2023-03-27T13:17:15.449Z,90.10
2023-03-27T13:18:12.777Z,90.00
2023-03-27T13:19:27.272Z,90.10
2023-03-27T13:20:20.598Z,89.70
2023-03-27T13:21:20.564Z,89.60
2023-03-27T13:22:17.481Z,90.00
2023-03-27T13:23:08.432Z,90.00
2023-03-27T13:23:52.123Z,90.00
2023-03-27T13:24:47.905Z,90.40
2023-03-27T13:25:44.228Z,89.80
2023-03-27T13:26:37.269Z,89.90
2023-03-27T13:27:32.009Z,89.70
2023-03-27T13:28:22.015Z,89.00
2023-03-27T13:29:20.684Z,90.20
2023-03-27T13:29:59.062Z,90.40
2023-03-27T13:30:49.521Z,89.50
2023-03-27T13:32:02.955Z,89.40
2023-03-27T13:33:23.019Z,89.40
2023-03-27T13:34:32.654Z,90.00
2023-03-27T13:35:19.612Z,90.20
2023-03-27T13:36:14.639Z,90.40
2023-03-27T13:36:48.924Z,89.70
2023-03-27T13:37:36.799Z,90.10
2023-03-27T13:38:13.419Z,90.20
2023-03-27T13:39:04.654Z,90.00
2023-03-27T13:39:55.639Z,90.60
2023-03-27T13:40:30.974Z,90.50
2023-03-27T13:41:45.038Z,90.10
2023-03-27T13:42:51.601Z,89.90
2023-03-27T13:43:30.786Z,89.60
2023-03-27T13:44:53.696Z,89.80
2023-03-27T13:45:38.729Z,89.70
2023-03-27T13:46:34.663Z,90.10
2023-03-27T13:47:36.184Z,89.80
2023-03-27T13:48:28.907Z,89.90
2023-03-27T13:49:08.119Z,89.90
2023-03-27T13:49:59.865Z,89.70
2023-03-27T13:51:07.964Z,89.90
2023-03-27T13:52:10.747Z,89.60